Agua Nueva, Texas
Current Conditions -  °F | °C
As of 8:35 PM on Thursday 27 Nov 2014 (Local Time) from KHBV Reporting Station
Clear Clear  
Wind Chill: 57°   Ceiling: Unl
Heat Index: 57°   Visibility: 10mi
Dew Point: 52°   Wind: 3mph
Humidity: 82%   Direction: 80°E
Pressure: 30.4"   Gusts: NA
Location:  27.0695°N, 98.7494°W
Report Text: KHBV 280235Z AUTO 08003KT 10SM CLR 14/11 A3040 RMK AO2 T01410110
Loading
Personal Weather Stations






























Interactive Weather Map New forecast layout! Learn more

10-Day Weather Forecast

Advertisements
Track Severe Weather on mobile